createdAt,value
2018-06-04T00:00:42.320Z,15.40
2018-06-04T00:03:12.759Z,15.30
2018-06-04T00:05:43.211Z,15.30
2018-06-04T00:08:13.657Z,15.30
2018-06-04T00:10:44.100Z,15.30
2018-06-04T00:13:14.575Z,15.20
2018-06-04T00:15:45.034Z,15.20
2018-06-04T00:18:15.524Z,15.20
2018-06-04T00:20:45.967Z,15.20
2018-06-04T00:23:16.439Z,15.20
2018-06-04T00:25:46.900Z,15.20
2018-06-04T00:28:17.340Z,15.10
2018-06-04T00:30:47.827Z,15.00
2018-06-04T00:33:18.374Z,14.90
2018-06-04T00:35:48.847Z,14.80
2018-06-04T00:38:19.275Z,14.80
2018-06-04T00:40:49.827Z,14.80
2018-06-04T00:43:20.269Z,14.80
2018-06-04T00:45:50.729Z,14.80
2018-06-04T00:48:21.190Z,14.80
2018-06-04T00:50:51.655Z,14.80
2018-06-04T00:53:22.112Z,14.80
2018-06-04T00:56:09.221Z,14.80
2018-06-04T00:58:39.676Z,14.90
2018-06-04T01:01:10.124Z,15.00
2018-06-04T01:03:40.575Z,15.00
2018-06-04T01:06:11.080Z,15.00
2018-06-04T01:08:41.618Z,15.10
2018-06-04T01:11:12.211Z,15.10
2018-06-04T01:13:42.768Z,15.10
2018-06-04T01:16:13.267Z,15.10
2018-06-04T01:18:43.693Z,15.10
2018-06-04T01:21:14.207Z,15.10
2018-06-04T01:23:44.639Z,15.10
2018-06-04T01:26:15.091Z,15.00
2018-06-04T01:28:45.655Z,15.00
2018-06-04T01:31:16.095Z,14.90
2018-06-04T01:33:46.579Z,14.80
2018-06-04T01:36:17.020Z,14.80
2018-06-04T01:38:47.491Z,14.80
2018-06-04T01:41:17.931Z,14.80
2018-06-04T01:43:48.409Z,14.80
2018-06-04T01:46:18.868Z,14.70
2018-06-04T01:48:49.323Z,14.60
2018-06-04T01:51:19.779Z,14.60
2018-06-04T01:53:50.225Z,14.50
2018-06-04T01:56:20.702Z,14.40
2018-06-04T01:58:51.139Z,14.30
2018-06-04T02:01:21.603Z,14.30
2018-06-04T02:03:52.091Z,14.20
2018-06-04T02:06:22.600Z,14.20
2018-06-04T02:08:53.028Z,14.20
2018-06-04T02:11:23.485Z,14.20
2018-06-04T02:13:53.925Z,14.10
2018-06-04T02:16:24.357Z,14.10
2018-06-04T02:18:54.853Z,14.10
2018-06-04T02:21:25.338Z,14.00
2018-06-04T02:23:55.810Z,14.00
2018-06-04T02:26:26.246Z,13.90
2018-06-04T02:28:56.732Z,13.90
2018-06-04T02:31:27.156Z,13.90
2018-06-04T02:33:57.607Z,13.90
2018-06-04T02:36:28.064Z,13.90
2018-06-04T02:38:58.518Z,13.80
2018-06-04T02:41:28.988Z,13.80
2018-06-04T02:43:59.412Z,13.70
2018-06-04T02:46:29.885Z,13.70
2018-06-04T02:49:00.348Z,13.70
2018-06-04T02:51:30.801Z,13.60
2018-06-04T02:54:01.311Z,13.50
2018-06-04T02:56:31.799Z,13.60
2018-06-04T02:59:02.236Z,13.70
2018-06-04T03:01:32.723Z,13.60
2018-06-04T03:04:03.164Z,13.60
2018-06-04T03:06:33.611Z,13.50
2018-06-04T03:09:06.043Z,13.50
2018-06-04T03:11:36.792Z,13.50
2018-06-04T03:14:07.695Z,13.40
2018-06-04T03:16:38.136Z,13.40
2018-06-04T03:19:08.604Z,13.40
2018-06-04T03:21:39.065Z,13.40
2018-06-04T03:24:09.633Z,13.40
2018-06-04T03:26:40.073Z,13.30
2018-06-04T03:29:10.526Z,13.30
2018-06-04T03:31:41.069Z,13.30
2018-06-04T03:34:11.548Z,13.40
2018-06-04T03:36:42.023Z,13.40
2018-06-04T03:39:12.753Z,13.40
2018-06-04T03:41:43.223Z,13.40
2018-06-04T03:44:13.711Z,13.50
2018-06-04T03:46:44.149Z,13.50
2018-06-04T03:49:14.616Z,13.60
2018-06-04T03:51:45.062Z,13.60
2018-06-04T03:54:15.516Z,13.70
2018-06-04T03:56:45.967Z,13.80
2018-06-04T03:59:16.432Z,14.00
2018-06-04T04:01:46.913Z,14.40
2018-06-04T04:04:17.354Z,15.00
2018-06-04T04:06:47.832Z,15.60
2018-06-04T04:09:18.335Z,16.20
2018-06-04T04:11:48.774Z,16.70
2018-06-04T04:14:19.260Z,17.30
2018-06-04T04:16:49.708Z,17.60
2018-06-04T04:19:20.210Z,18.20
2018-06-04T04:21:50.675Z,18.70
2018-06-04T04:24:21.121Z,19.20
2018-06-04T04:26:51.597Z,19.60
2018-06-04T04:29:22.039Z,19.40
2018-06-04T04:31:52.559Z,20.20
2018-06-04T04:34:22.995Z,20.70
2018-06-04T04:36:53.519Z,21.00
2018-06-04T04:39:23.951Z,21.50
2018-06-04T04:41:54.491Z,21.60
2018-06-04T04:44:24.960Z,21.80
2018-06-04T04:46:55.945Z,22.10
2018-06-04T04:49:26.386Z,22.40
2018-06-04T04:51:56.855Z,22.60
2018-06-04T04:54:27.299Z,22.80
2018-06-04T04:56:57.740Z,22.90
2018-06-04T04:59:28.188Z,22.80
2018-06-04T05:01:58.643Z,23.10
2018-06-04T05:04:29.107Z,23.50
2018-06-04T05:06:59.567Z,24.10
2018-06-04T05:09:30.005Z,24.40
2018-06-04T05:12:00.481Z,24.20
2018-06-04T05:14:30.924Z,24.30
2018-06-04T05:17:01.372Z,24.40
2018-06-04T05:19:31.885Z,24.20
2018-06-04T05:22:02.373Z,24.50
2018-06-04T05:24:32.796Z,25.10
2018-06-04T05:27:03.253Z,25.20
2018-06-04T05:29:33.680Z,24.90
2018-06-04T05:32:04.242Z,25.30
2018-06-04T05:34:34.706Z,25.50
2018-06-04T05:37:05.200Z,25.50
2018-06-04T05:39:35.771Z,25.90
2018-06-04T05:42:06.258Z,25.90
2018-06-04T05:44:36.712Z,26.40
2018-06-04T05:47:07.155Z,26.80
2018-06-04T05:49:37.655Z,26.60
2018-06-04T05:52:08.084Z,25.40
2018-06-04T05:54:38.572Z,26.40
2018-06-04T05:57:08.997Z,26.70
2018-06-04T05:59:39.484Z,26.70
2018-06-04T06:02:09.919Z,27.20
2018-06-04T06:04:40.388Z,27.70
2018-06-04T06:07:10.843Z,26.90
2018-06-04T06:09:41.331Z,26.80
2018-06-04T06:12:11.779Z,27.30
2018-06-04T06:14:42.239Z,27.80
2018-06-04T06:17:12.673Z,27.70
2018-06-04T06:19:43.179Z,27.40
2018-06-04T06:22:13.644Z,27.50
2018-06-04T06:24:44.131Z,28.00
2018-06-04T06:27:14.571Z,28.00
2018-06-04T06:29:45.068Z,27.80
2018-06-04T06:32:15.526Z,28.70
2018-06-04T06:34:45.992Z,28.50
2018-06-04T06:37:16.460Z,28.60
2018-06-04T06:39:46.936Z,28.00
2018-06-04T06:42:17.387Z,27.80
2018-06-04T06:44:47.855Z,28.10
2018-06-04T06:47:18.364Z,28.00
2018-06-04T06:49:48.859Z,28.60
2018-06-04T06:52:19.368Z,28.70
2018-06-04T06:54:49.811Z,28.70
2018-06-04T06:57:20.286Z,28.60
2018-06-04T06:59:50.746Z,28.70
2018-06-04T07:02:21.203Z,28.50
2018-06-04T07:04:51.684Z,28.60
2018-06-04T07:07:22.108Z,28.10
2018-06-04T07:09:52.568Z,28.30
2018-06-04T07:12:23.013Z,28.60
2018-06-04T07:14:53.499Z,28.90
2018-06-04T07:17:23.986Z,28.50
2018-06-04T07:19:54.423Z,29.00
2018-06-04T07:22:24.919Z,29.30
2018-06-04T07:24:55.375Z,29.10
2018-06-04T07:27:25.844Z,28.90
2018-06-04T07:29:56.296Z,29.30
2018-06-04T07:32:26.782Z,29.10
2018-06-04T07:34:57.324Z,29.20
2018-06-04T07:37:27.812Z,28.60
2018-06-04T07:39:58.251Z,28.20
2018-06-04T07:42:28.750Z,28.30
2018-06-04T07:44:59.198Z,28.60
2018-06-04T07:47:33.267Z,28.50
2018-06-04T07:50:04.017Z,28.80
2018-06-04T07:52:34.488Z,28.00
2018-06-04T07:55:05.008Z,27.90
2018-06-04T07:57:35.541Z,28.40
2018-06-04T08:00:07.256Z,28.10
2018-06-04T08:02:37.741Z,28.00
2018-06-04T08:05:08.299Z,28.40
2018-06-04T08:07:38.765Z,28.20
2018-06-04T08:10:09.306Z,28.70
2018-06-04T08:12:39.711Z,28.70
2018-06-04T08:15:10.160Z,28.30
2018-06-04T08:17:40.679Z,28.50
2018-06-04T08:20:11.167Z,28.30
2018-06-04T08:22:41.634Z,27.60
2018-06-04T08:25:12.091Z,27.60
2018-06-04T08:27:42.521Z,27.50
2018-06-04T08:30:12.986Z,27.50
2018-06-04T08:32:43.420Z,27.40
2018-06-04T08:35:13.883Z,27.50
2018-06-04T08:37:44.356Z,27.80
2018-06-04T08:40:14.866Z,27.40
2018-06-04T08:42:45.334Z,27.30
2018-06-04T08:45:15.923Z,27.30
2018-06-04T08:47:46.380Z,27.50
2018-06-04T08:50:16.901Z,26.90
2018-06-04T08:52:47.363Z,26.90
2018-06-04T08:55:17.828Z,26.90
2018-06-04T08:57:48.301Z,26.50
2018-06-04T09:00:18.884Z,26.70
2018-06-04T09:02:49.347Z,26.60
2018-06-04T09:05:19.834Z,26.80
2018-06-04T09:07:50.350Z,26.60
2018-06-04T09:10:20.432Z,26.60
2018-06-04T09:12:50.788Z,26.80
2018-06-04T09:15:21.318Z,26.80
2018-06-04T09:17:51.747Z,26.60
2018-06-04T09:20:22.224Z,26.90
2018-06-04T09:22:52.690Z,27.00
2018-06-04T09:25:23.168Z,26.40
2018-06-04T09:27:53.627Z,25.70
2018-06-04T09:30:24.103Z,26.10
2018-06-04T09:32:54.563Z,25.90
2018-06-04T09:35:25.008Z,25.40
2018-06-04T09:37:55.463Z,25.50
2018-06-04T09:40:25.932Z,25.90
2018-06-04T09:42:56.390Z,26.10
2018-06-04T09:45:26.835Z,26.20
2018-06-04T09:47:57.291Z,26.20
2018-06-04T09:50:27.783Z,26.50
2018-06-04T09:52:58.235Z,26.50
2018-06-04T09:55:28.858Z,26.60
2018-06-04T09:57:59.360Z,26.60
2018-06-04T10:00:34.850Z,26.70
2018-06-04T10:03:06.116Z,26.70
2018-06-04T10:05:36.560Z,26.50
2018-06-04T10:08:07.050Z,26.60
2018-06-04T10:10:37.483Z,26.40
2018-06-04T10:13:08.717Z,26.50
2018-06-04T10:15:39.196Z,26.90
2018-06-04T10:18:09.663Z,26.70
2018-06-04T10:20:40.113Z,26.30
2018-06-04T10:23:10.575Z,26.60
2018-06-04T10:25:41.054Z,26.10
2018-06-04T10:28:11.489Z,26.00
2018-06-04T10:30:41.963Z,25.90
2018-06-04T10:33:12.417Z,25.70
2018-06-04T10:35:42.875Z,25.90
2018-06-04T10:38:13.351Z,26.00
2018-06-04T10:40:43.808Z,25.70
2018-06-04T10:43:14.278Z,25.40
2018-06-04T10:45:44.756Z,25.60
2018-06-04T10:48:15.199Z,25.70
2018-06-04T10:50:45.692Z,25.80
2018-06-04T10:53:16.164Z,25.90
2018-06-04T10:55:46.637Z,25.90
2018-06-04T10:58:17.075Z,25.60
2018-06-04T11:00:47.562Z,25.60
2018-06-04T11:03:18.015Z,25.70
2018-06-04T11:05:48.542Z,26.00
2018-06-04T11:08:18.629Z,26.00
2018-06-04T11:10:48.997Z,25.70
2018-06-04T11:13:19.456Z,25.70
2018-06-04T11:15:50.250Z,25.90
2018-06-04T11:18:20.725Z,25.90
2018-06-04T11:20:51.168Z,25.80
2018-06-04T11:23:21.707Z,25.80
2018-06-04T11:25:52.205Z,26.00
2018-06-04T11:28:22.660Z,25.90
2018-06-04T11:30:53.116Z,25.90
2018-06-04T11:33:23.593Z,26.00
2018-06-04T11:35:54.036Z,26.10
2018-06-04T11:38:24.512Z,26.00
2018-06-04T11:40:54.635Z,26.00
2018-06-04T11:43:24.709Z,26.20
2018-06-04T11:45:54.459Z,26.30
2018-06-04T11:48:24.440Z,26.40
2018-06-04T11:50:54.531Z,26.40
2018-06-04T11:53:24.697Z,26.40
2018-06-04T11:55:54.781Z,26.40
2018-06-04T11:58:24.854Z,26.30
2018-06-04T12:00:54.963Z,26.40
2018-06-04T12:03:25.055Z,26.40
2018-06-04T12:05:55.222Z,26.60
2018-06-04T12:08:25.317Z,26.60
2018-06-04T12:10:55.401Z,26.50
2018-06-04T12:13:25.526Z,26.40
2018-06-04T12:15:55.614Z,26.60
2018-06-04T12:18:25.719Z,26.60
2018-06-04T12:20:55.808Z,26.50
2018-06-04T12:23:25.916Z,26.40
2018-06-04T12:25:55.967Z,26.50
2018-06-04T12:28:26.065Z,26.30
2018-06-04T12:30:56.138Z,26.20
2018-06-04T12:33:26.203Z,26.30
2018-06-04T12:35:56.276Z,26.20
2018-06-04T12:38:26.369Z,26.50
2018-06-04T12:40:56.428Z,26.60
2018-06-04T12:43:26.520Z,26.80
2018-06-04T12:45:56.616Z,26.90
2018-06-04T12:48:26.679Z,26.70
2018-06-04T12:50:56.796Z,26.60
2018-06-04T12:53:26.867Z,26.50
2018-06-04T12:55:56.958Z,26.40
2018-06-04T12:58:27.140Z,26.20
2018-06-04T13:00:57.208Z,25.90
2018-06-04T13:03:27.279Z,26.20
2018-06-04T13:05:57.355Z,26.40
2018-06-04T13:08:27.430Z,26.50
2018-06-04T13:10:57.589Z,26.60
2018-06-04T13:13:27.668Z,26.70
2018-06-04T13:15:57.761Z,26.50
2018-06-04T13:18:27.836Z,26.30
2018-06-04T13:20:57.937Z,26.40
2018-06-04T13:23:28.068Z,26.40
2018-06-04T13:25:58.144Z,26.40
2018-06-04T13:28:28.297Z,26.30
2018-06-04T13:30:58.361Z,26.20
2018-06-04T13:33:28.445Z,26.00
2018-06-04T13:35:58.507Z,25.80
2018-06-04T13:38:28.584Z,25.60
2018-06-04T13:40:58.654Z,25.60
2018-06-04T13:43:28.729Z,25.50
2018-06-04T13:45:58.801Z,25.50
2018-06-04T13:48:28.876Z,25.40
2018-06-04T13:50:58.946Z,25.10
2018-06-04T13:53:29.027Z,25.10
2018-06-04T13:55:59.100Z,25.10
2018-06-04T13:58:29.202Z,25.10
2018-06-04T14:00:59.296Z,25.10
2018-06-04T14:03:29.428Z,25.20
2018-06-04T14:05:59.528Z,25.10
2018-06-04T14:08:29.645Z,25.10
2018-06-04T14:10:59.719Z,25.00
2018-06-04T14:13:29.801Z,25.00
2018-06-04T14:15:59.860Z,24.90
2018-06-04T14:18:29.940Z,24.50
2018-06-04T14:21:00.027Z,24.40
2018-06-04T14:23:30.106Z,24.10
2018-06-04T14:26:00.179Z,24.10
2018-06-04T14:28:30.267Z,23.50
2018-06-04T14:31:00.365Z,23.60
2018-06-04T14:33:30.432Z,23.60
2018-06-04T14:36:00.537Z,23.60
2018-06-04T14:38:30.688Z,23.70
2018-06-04T14:41:00.974Z,23.60
2018-06-04T14:43:31.040Z,23.60
2018-06-04T14:46:01.138Z,23.50
2018-06-04T14:48:31.322Z,23.40
2018-06-04T14:51:01.416Z,23.40
2018-06-04T14:53:31.631Z,23.20
2018-06-04T14:56:01.782Z,23.00
2018-06-04T14:58:31.860Z,23.10
2018-06-04T15:01:01.961Z,22.80
2018-06-04T15:03:32.053Z,22.70
2018-06-04T15:06:02.232Z,22.70
2018-06-04T15:08:32.335Z,22.50
2018-06-04T15:11:02.407Z,22.60
2018-06-04T15:13:32.550Z,22.60
2018-06-04T15:16:02.704Z,22.70
2018-06-04T15:18:32.773Z,22.50
2018-06-04T15:21:02.859Z,22.70
2018-06-04T15:23:33.038Z,22.80
2018-06-04T15:26:03.208Z,22.50
2018-06-04T15:28:33.309Z,22.50
2018-06-04T15:31:03.423Z,22.60
2018-06-04T15:33:33.536Z,22.50
2018-06-04T15:36:04.723Z,22.40
2018-06-04T15:38:35.243Z,22.30
2018-06-04T15:41:05.460Z,22.20
2018-06-04T15:43:35.549Z,22.30
2018-06-04T15:46:05.660Z,22.40
2018-06-04T15:48:35.791Z,22.50
2018-06-04T15:51:05.904Z,22.60
2018-06-04T15:53:36.025Z,22.70
2018-06-04T15:56:06.145Z,22.60
2018-06-04T15:58:36.212Z,22.50
2018-06-04T16:01:06.312Z,22.50
2018-06-04T16:03:36.431Z,22.50
2018-06-04T16:06:06.540Z,22.40
2018-06-04T16:08:36.621Z,22.30
2018-06-04T16:11:06.814Z,22.30
2018-06-04T16:13:36.936Z,22.10
2018-06-04T16:16:07.138Z,22.00
2018-06-04T16:18:37.217Z,21.90
2018-06-04T16:21:07.300Z,22.00
2018-06-04T16:23:37.386Z,21.90
2018-06-04T16:26:07.549Z,21.90
2018-06-04T16:28:37.668Z,21.80
2018-06-04T16:31:07.793Z,21.80
2018-06-04T16:33:37.896Z,21.80
2018-06-04T16:36:08.058Z,21.70
2018-06-04T16:38:38.228Z,21.70
2018-06-04T16:41:08.332Z,21.70
2018-06-04T16:43:38.444Z,21.70
2018-06-04T16:46:08.577Z,21.70
2018-06-04T16:48:38.671Z,21.80
2018-06-04T16:51:08.763Z,21.80
2018-06-04T16:53:38.916Z,21.70
2018-06-04T16:56:09.036Z,21.60
2018-06-04T16:58:39.148Z,21.60
2018-06-04T17:01:09.241Z,21.60
2018-06-04T17:03:39.380Z,21.70
2018-06-04T17:06:09.502Z,21.60
2018-06-04T17:08:39.584Z,21.60
2018-06-04T17:11:09.708Z,21.60
2018-06-04T17:13:39.826Z,21.50
2018-06-04T17:16:10.028Z,21.40
2018-06-04T17:18:40.164Z,21.30
2018-06-04T17:21:10.320Z,21.20
2018-06-04T17:23:40.768Z,21.20
2018-06-04T17:26:11.021Z,21.10
2018-06-04T17:28:41.124Z,21.10
2018-06-04T17:31:11.243Z,21.10
2018-06-04T17:33:41.336Z,21.00
2018-06-04T17:36:11.534Z,21.00
2018-06-04T17:38:41.879Z,20.90
2018-06-04T17:41:11.952Z,20.90
2018-06-04T17:43:42.424Z,20.80
2018-06-04T17:46:12.555Z,20.70
2018-06-04T17:48:42.970Z,20.70
2018-06-04T17:51:13.087Z,20.60
2018-06-04T17:53:43.188Z,20.60
2018-06-04T17:56:13.339Z,20.50
2018-06-04T17:58:43.461Z,20.50
2018-06-04T18:01:13.571Z,20.40
2018-06-04T18:03:43.696Z,20.30
2018-06-04T18:06:14.001Z,20.30
2018-06-04T18:08:44.078Z,20.20
2018-06-04T18:11:13.859Z,20.20
2018-06-04T18:13:43.903Z,20.10
2018-06-04T18:16:14.004Z,20.00
2018-06-04T18:18:44.101Z,20.00
2018-06-04T18:21:14.196Z,20.00
2018-06-04T18:23:44.368Z,20.00
2018-06-04T18:26:14.514Z,20.10
2018-06-04T18:28:44.620Z,20.00
2018-06-04T18:31:15.043Z,19.90
2018-06-04T18:33:45.136Z,19.70
2018-06-04T18:36:15.266Z,19.70
2018-06-04T18:38:45.380Z,19.60
2018-06-04T18:41:15.496Z,19.60
2018-06-04T18:43:45.697Z,19.60
2018-06-04T18:46:15.791Z,19.50
2018-06-04T18:48:45.875Z,19.60
2018-06-04T18:51:15.976Z,19.50
2018-06-04T18:53:46.064Z,19.50
2018-06-04T18:56:16.205Z,19.40
2018-06-04T18:58:46.292Z,19.30
2018-06-04T19:01:16.412Z,19.20
2018-06-04T19:03:46.476Z,19.10
2018-06-04T19:06:16.626Z,19.10
2018-06-04T19:08:46.730Z,19.10
2018-06-04T19:11:16.853Z,19.00
2018-06-04T19:13:46.957Z,19.00
2018-06-04T19:16:17.089Z,19.00
2018-06-04T19:18:47.261Z,19.00
2018-06-04T19:21:17.447Z,18.90
2018-06-04T19:23:47.861Z,18.90
2018-06-04T19:26:17.953Z,18.90
2018-06-04T19:28:48.080Z,18.90
2018-06-04T19:31:18.167Z,18.90
2018-06-04T19:33:48.239Z,18.90
2018-06-04T19:36:18.402Z,18.90
2018-06-04T19:38:49.368Z,18.70
2018-06-04T19:41:19.821Z,18.80
2018-06-04T19:43:49.935Z,18.80
2018-06-04T19:46:20.064Z,18.70
2018-06-04T19:48:50.356Z,18.70
2018-06-04T19:51:20.459Z,18.60
2018-06-04T19:53:50.544Z,18.50
2018-06-04T19:56:20.650Z,18.50
2018-06-04T19:58:50.725Z,18.40
2018-06-04T20:01:20.801Z,18.40
2018-06-04T20:03:50.895Z,18.20
2018-06-04T20:06:20.993Z,18.30
2018-06-04T20:08:51.073Z,18.20
2018-06-04T20:11:21.184Z,18.10
2018-06-04T20:13:51.276Z,18.10
2018-06-04T20:16:21.372Z,18.20
2018-06-04T20:18:51.437Z,18.10
2018-06-04T20:21:21.532Z,18.30
2018-06-04T20:23:51.774Z,18.20
2018-06-04T20:26:21.832Z,18.10
2018-06-04T20:28:51.911Z,18.10
2018-06-04T20:31:21.980Z,18.10
2018-06-04T20:33:52.149Z,18.00
2018-06-04T20:36:22.232Z,17.90
2018-06-04T20:38:52.320Z,17.90
2018-06-04T20:41:22.416Z,17.90
2018-06-04T20:43:52.473Z,17.80
2018-06-04T20:46:22.707Z,17.80
2018-06-04T20:48:52.776Z,17.80
2018-06-04T20:51:22.866Z,17.70
2018-06-04T20:53:52.933Z,17.70
2018-06-04T20:56:23.119Z,17.60
2018-06-04T20:58:53.196Z,17.50
2018-06-04T21:01:23.384Z,17.50
2018-06-04T21:03:53.464Z,17.50
2018-06-04T21:06:23.627Z,17.50
2018-06-04T21:08:53.740Z,17.30
2018-06-04T21:11:23.813Z,17.20
2018-06-04T21:13:53.910Z,17.20
2018-06-04T21:16:23.971Z,17.10
2018-06-04T21:18:54.043Z,17.00
2018-06-04T21:21:24.105Z,17.10
2018-06-04T21:23:54.179Z,17.00
2018-06-04T21:26:24.251Z,17.00
2018-06-04T21:28:54.364Z,17.00
2018-06-04T21:31:24.448Z,16.90
2018-06-04T21:33:54.539Z,17.00
2018-06-04T21:36:24.635Z,16.90
2018-06-04T21:38:54.696Z,16.90
2018-06-04T21:41:24.775Z,16.90
2018-06-04T21:43:54.847Z,16.80
2018-06-04T21:46:24.929Z,16.70
2018-06-04T21:48:54.994Z,16.70
2018-06-04T21:51:25.060Z,16.70
2018-06-04T21:53:55.141Z,16.60
2018-06-04T21:56:25.244Z,16.70
2018-06-04T21:58:55.304Z,16.70
2018-06-04T22:01:25.402Z,16.70
2018-06-04T22:03:55.191Z,16.80
2018-06-04T22:06:25.176Z,16.70
2018-06-04T22:08:55.280Z,16.80
2018-06-04T22:11:25.372Z,16.80
2018-06-04T22:13:55.448Z,16.90
2018-06-04T22:16:25.539Z,16.80
2018-06-04T22:18:55.611Z,16.90
2018-06-04T22:21:25.718Z,16.80
2018-06-04T22:23:55.771Z,16.80
2018-06-04T22:26:25.868Z,16.80
2018-06-04T22:28:55.929Z,16.70
2018-06-04T22:31:26.017Z,16.60
2018-06-04T22:33:56.075Z,16.70
2018-06-04T22:36:26.159Z,16.70
2018-06-04T22:38:56.232Z,16.60
2018-06-04T22:41:26.424Z,16.60
2018-06-04T22:43:56.546Z,16.70
2018-06-04T22:46:26.621Z,16.80
2018-06-04T22:48:56.779Z,16.70
2018-06-04T22:51:26.844Z,16.70
2018-06-04T22:53:56.928Z,16.60
2018-06-04T22:56:27.019Z,16.70
2018-06-04T22:58:57.091Z,16.80
2018-06-04T23:01:27.174Z,16.80
2018-06-04T23:03:57.308Z,16.90
2018-06-04T23:06:27.379Z,16.70
2018-06-04T23:08:57.445Z,16.90
2018-06-04T23:11:27.504Z,16.80
2018-06-04T23:13:57.579Z,16.80
2018-06-04T23:16:27.656Z,16.80
2018-06-04T23:18:57.745Z,16.90
2018-06-04T23:21:27.835Z,16.80
2018-06-04T23:23:57.935Z,16.90
2018-06-04T23:26:28.004Z,16.90
2018-06-04T23:28:58.092Z,16.90
2018-06-04T23:31:28.158Z,16.80
2018-06-04T23:33:58.224Z,16.70
2018-06-04T23:36:28.327Z,16.80
2018-06-04T23:38:58.400Z,16.70
2018-06-04T23:41:28.476Z,16.70
2018-06-04T23:43:58.536Z,16.60
2018-06-04T23:46:28.644Z,16.60
2018-06-04T23:48:58.758Z,16.50
2018-06-04T23:51:28.848Z,16.60
2018-06-04T23:53:58.919Z,16.50
2018-06-04T23:56:28.984Z,16.50
2018-06-04T23:58:59.116Z,16.50
